Weissport, Pennsylvania
Current Conditions -  °F | °C
As of 5:35 AM on Thursday 18 Dec 2014 (Local Time) from KHZL Reporting Station
Overcast Overcast  
Wind Chill: 18°   Ceiling: 2300
Heat Index: 30°   Visibility: 10mi
Dew Point: 23°   Wind: 18mph
Humidity: 75%   Direction: 290°WNW
Pressure: 29.97"   Gusts: 24mph
Location:  40.8001°N, 75.751°W
Report Text: KHZL 181035Z AUTO 29016G21KT 10SM OVC023 M01/M05 A2997 RMK AO2
Loading
Personal Weather Stations






























Interactive Weather Map New forecast layout! Learn more

10-Day Weather Forecast

Advertisements
Track Severe Weather on mobile